Time;durP1;ratioP1;P1;durP2;ratioP2;P2;SDS_P1;SDS_P2;PMS_P1;PMS_P2;Temp;Humidity;BMP_temperature;BMP_pressure;BME280_temperature;BME280_humidity;BME280_pressure;Samples;Min_cycle;Max_cycle;Signal;HPM_P1;HPM_P2
2020/12/12 05:18:36;;;;;;;19.20;9.38;;;0.10;99.90;;;;;;5582433;23;20053;-67
2020/12/12 05:21:01;;;;;;;19.00;10.15;;;0.10;99.90;;;;;;4869893;29;20097;-67
2020/12/12 05:23:27;;;;;;;14.30;8.70;;;0.10;99.90;;;;;;4870688;29;20474;-67
2020/12/12 05:25:55;;;;;;;13.75;8.93;;;0.10;99.90;;;;;;4875151;29;20399;-67
2020/12/12 05:28:22;;;;;;;18.48;10.10;;;0.10;99.90;;;;;;4866425;29;20128;-67
2020/12/12 05:30:50;;;;;;;20.88;11.40;;;0.10;99.90;;;;;;4888533;29;20044;-68
2020/12/12 05:33:18;;;;;;;15.38;8.52;;;0.10;99.90;;;;;;4876800;29;20025;-72
2020/12/12 05:35:44;;;;;;;15.40;8.98;;;0.10;99.90;;;;;;4883808;29;20036;-72
2020/12/12 05:38:10;;;;;;;13.68;9.05;;;0.00;99.90;;;;;;4877924;29;20040;-75
2020/12/12 05:40:38;;;;;;;18.35;9.07;;;0.00;99.90;;;;;;4877808;29;20036;-71
2020/12/12 05:43:09;;;;;;;15.68;9.07;;;0.10;99.90;;;;;;4877817;29;20025;-73
2020/12/12 05:45:36;;;;;;;15.50;9.40;;;0.40;99.90;;;;;;4877752;29;20071;-68
2020/12/12 05:48:06;;;;;;;17.02;9.50;;;0.40;99.90;;;;;;4877579;29;20037;-70
2020/12/12 05:50:33;;;;;;;16.10;9.40;;;0.30;99.90;;;;;;4877602;29;20469;-71
2020/12/12 05:52:58;;;;;;;16.08;9.40;;;0.30;99.90;;;;;;4878433;29;20084;-71
2020/12/12 05:55:31;;;;;;;16.95;9.73;;;0.20;99.90;;;;;;4881892;29;20033;-71
2020/12/12 05:57:57;;;;;;;14.35;8.32;;;0.20;99.90;;;;;;4884842;29;20033;-72
2020/12/12 06:00:28;;;;;;;15.73;9.50;;;0.20;99.90;;;;;;4888575;29;20515;-71
2020/12/12 06:02:58;;;;;;;15.00;9.75;;;0.20;99.90;;;;;;4886254;29;20033;-71
2020/12/12 06:05:28;;;;;;;16.38;9.68;;;0.20;99.90;;;;;;4884089;29;20041;-71
2020/12/12 06:08:03;;;;;;;18.23;9.57;;;0.20;99.90;;;;;;4882974;29;20036;-71
2020/12/12 06:10:32;;;;;;;20.45;9.13;;;0.20;99.90;;;;;;4887857;29;20044;-71
2020/12/12 06:13:00;;;;;;;17.63;9.75;;;0.20;99.90;;;;;;4881858;29;20025;-77
2020/12/12 06:15:40;;;;;;;16.95;9.20;;;0.20;99.90;;;;;;4887344;29;20047;-72
2020/12/12 06:18:37;;;;;;;15.10;8.82;;;0.20;99.90;;;;;;4884391;29;20021;-73
2020/12/12 06:21:12;;;;;;;15.05;8.25;;;0.10;99.90;;;;;;4874702;29;20445;-72
2020/12/12 06:23:39;;;;;;;15.05;9.13;;;0.20;99.90;;;;;;4871996;29;20041;-73
2020/12/12 06:26:06;;;;;;;17.35;9.20;;;0.10;99.90;;;;;;4877010;29;20497;-72
2020/12/12 06:28:39;;;;;;;14.70;9.57;;;0.10;99.90;;;;;;4877287;29;20033;-74
2020/12/12 06:31:06;;;;;;;22.05;11.98;;;0.10;99.90;;;;;;4879289;29;20029;-74
2020/12/12 06:33:55;;;;;;;16.90;10.43;;;0.10;99.90;;;;;;4880434;29;20064;-75
2020/12/12 06:36:45;;;;;;;17.30;9.32;;;0.40;99.90;;;;;;4880602;29;20098;-75
2020/12/12 06:39:21;;;;;;;18.93;9.63;;;0.40;99.90;;;;;;4880667;29;20025;-75
2020/12/12 06:41:52;;;;;;;17.98;10.70;;;0.40;99.90;;;;;;4880452;29;20072;-73
2020/12/12 06:44:38;;;;;;;17.60;9.70;;;0.40;99.90;;;;;;4880439;29;20029;-73
2020/12/12 06:47:08;;;;;;;15.88;9.02;;;0.40;99.90;;;;;;4880420;29;20021;-72
2020/12/12 06:49:35;;;;;;;17.87;10.17;;;0.40;99.90;;;;;;4880068;29;20033;-73
2020/12/12 06:52:01;;;;;;;15.52;9.30;;;0.40;99.90;;;;;;4880539;29;20288;-72
2020/12/12 06:54:27;;;;;;;15.45;9.40;;;0.30;99.90;;;;;;4880101;29;20033;-72
2020/12/12 06:56:53;;;;;;;15.23;8.77;;;0.30;99.90;;;;;;4880026;29;20037;-72
2020/12/12 06:59:28;;;;;;;14.85;9.52;;;0.40;99.90;;;;;;4880143;29;20033;-71
2020/12/12 07:01:59;;;;;;;16.90;9.73;;;0.40;99.90;;;;;;4879803;29;20021;-72
2020/12/12 07:04:35;;;;;;;17.35;10.38;;;0.50;99.90;;;;;;4861649;29;20637;-73
2020/12/12 07:07:07;;;;;;;19.02;9.93;;;0.40;99.90;;;;;;4861441;29;20581;-72
2020/12/12 07:09:35;;;;;;;16.13;9.98;;;0.40;99.90;;;;;;4868337;29;20037;-77
2020/12/12 07:12:01;;;;;;;16.42;9.88;;;0.30;99.90;;;;;;4880053;29;20036;-76
2020/12/12 07:14:27;;;;;;;14.77;8.35;;;0.30;99.90;;;;;;4879766;29;20033;-76
2020/12/12 07:16:59;;;;;;;13.82;8.18;;;0.90;99.90;;;;;;4880267;29;20072;-76
2020/12/12 07:19:30;;;;;;;15.60;8.77;;;1.60;99.90;;;;;;4879593;29;20077;-73
2020/12/12 07:21:56;;;;;;;14.65;9.25;;;1.60;99.90;;;;;;4879997;29;20102;-72
2020/12/12 07:24:22;;;;;;;17.63;9.20;;;1.30;99.90;;;;;;4878983;29;20025;-73
2020/12/12 07:26:48;;;;;;;16.10;9.20;;;1.00;99.90;;;;;;4878952;29;20040;-78
2020/12/12 07:29:14;;;;;;;15.93;9.18;;;0.80;99.90;;;;;;4878995;29;20037;-73
2020/12/12 07:31:39;;;;;;;15.00;9.23;;;0.60;99.90;;;;;;4879171;29;20104;-75
2020/12/12 07:34:05;;;;;;;18.83;10.32;;;0.50;99.90;;;;;;4877188;29;20029;-87
2020/12/12 07:36:32;;;;;;;16.35;10.00;;;0.40;99.90;;;;;;4878944;29;20139;-76
2020/12/12 07:39:05;;;;;;;16.48;9.85;;;0.40;99.90;;;;;;4878957;29;20018;-76
2020/12/12 07:41:32;;;;;;;19.58;11.52;;;0.40;99.90;;;;;;4878437;29;20029;-73
2020/12/12 07:43:58;;;;;;;18.60;9.63;;;0.30;99.90;;;;;;4879505;29;20030;-73
2020/12/12 07:46:38;;;;;;;21.45;11.50;;;0.30;99.90;;;;;;4879259;29;20056;-77
2020/12/12 07:49:05;;;;;;;17.90;10.27;;;0.30;99.90;;;;;;4877888;29;20165;-77
2020/12/12 07:51:31;;;;;;;15.93;10.73;;;0.30;99.90;;;;;;4879189;29;20044;-77
2020/12/12 07:53:57;;;;;;;18.20;10.35;;;0.30;99.90;;;;;;4878866;29;20037;-75
2020/12/12 07:56:24;;;;;;;18.55;10.98;;;0.20;99.90;;;;;;4879057;29;20067;-76
2020/12/12 07:59:03;;;;;;;19.98;10.82;;;0.20;99.90;;;;;;4879288;29;20021;-77
2020/12/12 08:01:28;;;;;;;17.27;10.60;;;0.20;99.90;;;;;;4870666;29;20033;-77
2020/12/12 08:03:54;;;;;;;18.88;10.63;;;0.20;99.90;;;;;;4879050;29;20161;-78
2020/12/12 08:06:25;;;;;;;17.48;10.98;;;0.20;99.90;;;;;;4879166;29;20115;-77
2020/12/12 08:08:55;;;;;;;19.90;11.25;;;0.10;99.90;;;;;;4875249;29;20032;-78
2020/12/12 08:11:21;;;;;;;;;;;0.10;99.90;;;;;;4878152;29;20108;-76
2020/12/12 08:13:47;;;;;;;18.30;11.05;;;0.10;99.90;;;;;;4878720;29;20451;-78
2020/12/12 08:18:39;;;;;;;16.88;8.93;;;0.30;99.90;;;;;;4878068;29;20052;-72
2020/12/12 08:21:15;;;;;;;15.57;9.85;;;0.90;99.90;;;;;;4878940;29;20096;-72
2020/12/12 08:23:42;;;;;;;17.00;9.32;;;1.90;99.90;;;;;;4878463;29;20032;-72
2020/12/12 08:26:12;;;;;;;17.17;9.32;;;2.60;99.90;;;;;;4878569;29;20105;-72
2020/12/12 08:28:38;;;;;;;14.10;8.88;;;2.80;99.90;;;;;;4875584;29;20059;-71
2020/12/12 08:31:17;;;;;;;18.20;9.20;;;2.70;99.90;;;;;;4878327;29;20093;-73
2020/12/12 08:33:45;;;;;;;14.55;9.35;;;2.60;99.90;;;;;;4866001;29;20053;-73
2020/12/12 08:36:19;;;;;;;13.48;9.13;;;2.60;99.90;;;;;;4878115;29;20031;-72
2020/12/12 08:38:54;;;;;;;10.70;6.65;;;3.40;99.90;;;;;;4877836;29;20017;-71
2020/12/12 08:41:20;;;;;;;19.10;9.63;;;4.20;99.90;;;;;;4878362;29;20025;-72
2020/12/12 08:43:47;;;;;;;14.20;9.43;;;5.10;99.90;;;;;;4878464;29;20031;-72
2020/12/12 08:46:15;;;;;;;12.82;9.07;;;4.20;99.90;;;;;;4878372;29;20033;-72
2020/12/12 08:48:41;;;;;;;19.95;10.57;;;3.30;99.90;;;;;;4878123;29;20580;-72
2020/12/12 08:51:08;;;;;;;13.13;8.23;;;2.70;99.90;;;;;;4878226;29;20032;-72
2020/12/12 08:53:37;;;;;;;15.23;9.65;;;2.30;99.90;;;;;;4877656;29;20108;-72
2020/12/12 08:56:22;;;;;;;15.75;9.63;;;2.00;99.90;;;;;;4878023;29;20036;-73
2020/12/12 08:58:51;;;;;;;15.00;9.85;;;1.80;99.90;;;;;;4877699;29;20400;-72
2020/12/12 09:01:38;;;;;;;15.60;9.20;;;1.70;99.90;;;;;;4878070;29;20107;-72
2020/12/12 09:04:19;;;;;;;13.98;9.27;;;1.50;99.90;;;;;;4876683;29;20025;-72
2020/12/12 09:06:57;;;;;;;16.63;9.38;;;1.50;99.90;;;;;;4877956;29;20580;-73
2020/12/12 09:09:24;;;;;;;17.83;11.45;;;1.90;99.90;;;;;;4878189;29;20041;-73
2020/12/12 09:11:59;;;;;;;16.35;9.02;;;1.80;99.90;;;;;;4878025;29;20037;-73
2020/12/12 09:14:27;;;;;;;17.88;10.73;;;1.70;99.90;;;;;;4877783;29;20393;-73
2020/12/12 09:16:55;;;;;;;16.75;9.70;;;1.50;99.90;;;;;;4877913;29;20051;-73
2020/12/12 09:19:21;;;;;;;17.20;9.10;;;1.70;99.90;;;;;;4877130;29;20063;-74
2020/12/12 09:21:47;;;;;;;16.58;9.52;;;1.90;99.90;;;;;;4877342;29;20041;-74
2020/12/12 09:24:14;;;;;;;13.00;8.77;;;2.80;99.90;;;;;;4877955;29;20032;-74
2020/12/12 09:26:40;;;;;;;15.27;9.23;;;3.10;99.90;;;;;;4877371;29;20035;-69
2020/12/12 09:29:06;;;;;;;13.55;8.65;;;2.80;99.90;;;;;;4876467;29;20034;-74
2020/12/12 09:31:32;;;;;;;13.70;9.25;;;2.50;99.90;;;;;;4878110;29;20036;-74
2020/12/12 09:33:57;;;;;;;15.02;8.63;;;2.20;99.90;;;;;;4878117;29;20037;-75
2020/12/12 09:36:24;;;;;;;14.15;8.82;;;2.00;99.90;;;;;;4877556;29;20041;-72
2020/12/12 09:38:50;;;;;;;13.43;8.73;;;2.70;99.90;;;;;;4876548;29;20029;-73
2020/12/12 09:41:16;;;;;;;14.70;9.55;;;3.10;99.90;;;;;;4876810;29;20025;-73
2020/12/12 09:43:42;;;;;;;16.13;9.70;;;2.80;99.90;;;;;;4873048;29;20037;-73
2020/12/12 09:46:08;;;;;;;16.00;9.95;;;2.50;99.90;;;;;;4877684;29;20032;-73
2020/12/12 09:48:38;;;;;;;16.70;10.02;;;2.30;99.90;;;;;;4877006;29;20061;-73
2020/12/12 09:51:05;;;;;;;16.95;10.60;;;2.10;99.90;;;;;;4877567;29;20061;-73
2020/12/12 09:53:31;;;;;;;16.75;10.43;;;1.90;99.90;;;;;;4877191;29;20056;-74
2020/12/12 09:55:57;;;;;;;20.58;12.27;;;1.80;99.90;;;;;;4877362;29;20505;-74
2020/12/12 09:58:24;;;;;;;18.23;11.32;;;1.70;99.90;;;;;;4877391;29;20052;-74
2020/12/12 10:00:50;;;;;;;18.15;10.85;;;1.60;99.90;;;;;;4876951;29;20025;-73
2020/12/12 10:03:17;;;;;;;17.60;11.32;;;1.50;99.90;;;;;;4878011;29;20025;-74
2020/12/12 10:05:42;;;;;;;17.15;9.98;;;1.40;99.90;;;;;;4880834;29;20101;-74
2020/12/12 10:08:08;;;;;;;17.00;9.75;;;1.40;99.90;;;;;;4881310;29;20025;-74
2020/12/12 10:10:34;;;;;;;18.30;11.18;;;1.40;99.90;;;;;;4880917;29;20044;-75
2020/12/12 10:13:00;;;;;;;16.10;10.95;;;1.40;99.90;;;;;;4881405;29;20072;-74
2020/12/12 10:15:26;;;;;;;16.17;10.10;;;1.40;99.90;;;;;;4881066;29;20033;-74
2020/12/12 10:17:52;;;;;;;16.52;9.57;;;1.30;99.90;;;;;;4880631;29;20033;-74
2020/12/12 10:20:19;;;;;;;17.67;10.68;;;1.30;99.90;;;;;;4880789;29;20401;-73
2020/12/12 10:22:45;;;;;;;16.40;10.10;;;1.20;99.90;;;;;;4880615;29;20058;-74
2020/12/12 10:25:11;;;;;;;16.80;9.50;;;1.20;99.90;;;;;;4881084;29;20040;-73
2020/12/12 10:27:37;;;;;;;15.48;10.13;;;1.20;99.90;;;;;;4880993;29;20040;-73
2020/12/12 10:30:06;;;;;;;17.38;10.93;;;1.20;99.90;;;;;;4880860;29;20124;-73
2020/12/12 10:32:32;;;;;;;18.15;10.60;;;1.20;99.90;;;;;;4880904;29;20040;-74
2020/12/12 10:34:57;;;;;;;14.43;9.80;;;1.20;99.90;;;;;;4880379;29;20021;-73
2020/12/12 10:37:23;;;;;;;21.15;10.32;;;1.20;99.90;;;;;;4880666;29;20040;-73
2020/12/12 10:42:26;;;;;;;17.30;10.70;;;1.10;99.90;;;;;;4880679;29;20096;-73
2020/12/12 10:44:52;;;;;;;16.85;10.20;;;1.10;99.90;;;;;;4880603;29;20025;-73
2020/12/12 10:47:18;;;;;;;16.05;10.05;;;1.10;99.90;;;;;;4880621;29;20086;-73
2020/12/12 10:49:44;;;;;;;17.60;10.55;;;1.00;99.90;;;;;;4880570;29;20069;-72
2020/12/12 10:52:10;;;;;;;18.73;10.65;;;1.00;99.90;;;;;;4882161;29;20060;-73
2020/12/12 10:54:35;;;;;;;15.60;10.80;;;0.90;99.90;;;;;;4880361;29;20488;-73
2020/12/12 10:57:01;;;;;;;16.85;10.70;;;0.90;99.90;;;;;;4880152;29;20029;-73
2020/12/12 10:59:27;;;;;;;18.92;11.73;;;0.90;99.90;;;;;;4880423;29;20033;-73
2020/12/12 11:01:54;;;;;;;17.58;11.48;;;0.90;99.90;;;;;;4879861;29;20029;-72
2020/12/12 11:04:24;;;;;;;17.52;10.93;;;0.90;99.90;;;;;;4880196;29;20041;-72
2020/12/12 11:06:50;;;;;;;16.35;10.50;;;0.90;99.90;;;;;;4880033;29;20028;-73
2020/12/12 11:09:16;;;;;;;16.83;9.98;;;0.90;99.90;;;;;;4880205;29;20373;-72
2020/12/12 11:11:42;;;;;;;16.55;9.98;;;0.90;99.90;;;;;;4879854;29;20029;-73
2020/12/12 11:14:08;;;;;;;16.30;9.65;;;0.90;99.90;;;;;;4879836;29;20426;-72
2020/12/12 11:16:35;;;;;;;18.92;10.20;;;0.90;99.90;;;;;;4879295;29;20390;-73
2020/12/12 11:19:02;;;;;;;14.95;9.70;;;1.00;99.90;;;;;;4879298;29;20052;-73
2020/12/12 11:21:28;;;;;;;12.85;9.32;;;1.00;99.90;;;;;;4880038;29;20381;-75
2020/12/12 11:23:54;;;;;;;14.88;9.55;;;0.90;99.90;;;;;;4879630;29;20112;-74
2020/12/12 11:26:20;;;;;;;12.63;8.13;;;0.90;99.90;;;;;;4879788;29;20161;-74
2020/12/12 11:28:46;;;;;;;13.80;9.02;;;0.90;99.90;;;;;;4879792;29;20077;-75
2020/12/12 11:31:17;;;;;;;14.70;9.63;;;0.90;99.90;;;;;;4879632;29;20115;-74
2020/12/12 11:33:46;;;;;;;16.08;10.05;;;0.90;99.90;;;;;;4878290;29;20036;-74
2020/12/12 11:39:06;;;;;;;16.05;10.10;;;0.80;99.90;;;;;;4879385;29;20618;-75
2020/12/12 11:46:56;;;;;;;15.07;9.90;;;0.90;99.90;;;;;;4879487;29;19963;-74
2020/12/12 11:49:23;;;;;;;18.55;11.75;;;0.90;99.90;;;;;;4879469;29;20033;-75
2020/12/12 11:51:49;;;;;;;17.05;10.88;;;0.90;99.90;;;;;;4879059;29;20474;-75
2020/12/12 11:54:15;;;;;;;19.63;11.13;;;0.90;99.90;;;;;;4879152;29;20458;-75
2020/12/12 11:56:41;;;;;;;17.92;11.25;;;0.90;99.90;;;;;;4878927;29;20037;-75
2020/12/12 11:59:07;;;;;;;20.60;10.82;;;0.90;99.90;;;;;;4879068;29;20088;-74
2020/12/12 12:01:33;;;;;;;16.42;10.48;;;0.90;99.90;;;;;;4879082;29;20025;-76
2020/12/12 12:03:59;;;;;;;20.35;11.43;;;0.90;99.90;;;;;;4878657;29;20033;-76
2020/12/12 12:06:25;;;;;;;17.90;11.02;;;0.80;99.90;;;;;;4878986;29;20029;-75
2020/12/12 12:09:11;;;;;;;17.40;10.70;;;0.80;99.90;;;;;;4866878;29;20030;-75
2020/12/12 12:11:37;;;;;;;18.15;11.52;;;0.80;99.90;;;;;;4868319;29;20072;-75
2020/12/12 12:14:03;;;;;;;18.92;12.00;;;0.80;99.90;;;;;;4878963;29;20469;-76
2020/12/12 12:16:35;;;;;;;17.27;11.60;;;0.80;99.90;;;;;;4878713;29;20120;-75
2020/12/12 12:19:12;;;;;;;18.77;12.32;;;0.80;99.90;;;;;;4878502;29;20049;-75
2020/12/12 12:21:38;;;;;;;20.55;12.82;;;0.80;99.90;;;;;;4870277;29;20493;-75
2020/12/12 12:24:05;;;;;;;20.05;12.88;;;0.70;99.90;;;;;;4878790;29;20047;-76
2020/12/12 12:26:36;;;;;;;21.67;13.60;;;0.70;99.90;;;;;;4878024;29;20025;-75
2020/12/12 12:29:05;;;;;;;;;;;0.80;99.90;;;;;;4878466;29;20056;-74
2020/12/12 12:31:31;;;;;;;20.40;11.88;;;0.80;99.90;;;;;;4878380;29;19907;-75
2020/12/12 12:33:57;;;;;;;22.33;12.15;;;0.70;99.90;;;;;;4878322;29;20047;-75
2020/12/12 12:36:25;;;;;;;20.40;12.77;;;0.70;99.90;;;;;;4878371;29;20025;-75
2020/12/12 12:38:52;;;;;;;20.83;13.18;;;0.70;99.90;;;;;;4878535;29;20524;-75
2020/12/12 12:41:18;;;;;;;22.45;13.85;;;0.70;99.90;;;;;;4872055;29;20036;-75
2020/12/12 12:43:44;;;;;;;23.75;13.98;;;0.70;99.90;;;;;;4878154;29;20032;-76
2020/12/12 12:46:10;;;;;;;25.27;14.55;;;0.70;99.90;;;;;;4878423;29;20031;-75
2020/12/12 12:48:36;;;;;;;25.58;14.23;;;0.70;99.90;;;;;;4876907;29;20076;-75
2020/12/12 12:51:04;;;;;;;24.77;14.40;;;0.70;99.90;;;;;;4879125;29;20047;-76
2020/12/12 12:53:30;;;;;;;25.10;14.98;;;0.70;99.90;;;;;;4878286;29;20077;-76
2020/12/12 12:55:55;;;;;;;19.77;12.93;;;0.70;99.90;;;;;;4878561;29;20025;-75
2020/12/12 12:58:21;;;;;;;22.48;13.75;;;0.70;99.90;;;;;;4877350;29;20112;-75
2020/12/12 13:00:47;;;;;;;24.40;13.80;;;0.70;99.90;;;;;;4877628;29;20029;-75
2020/12/12 13:03:12;;;;;;;22.88;13.70;;;0.70;99.90;;;;;;4877619;29;20057;-75
2020/12/12 13:05:41;;;;;;;24.38;15.43;;;0.70;99.90;;;;;;4877687;29;20052;-75
2020/12/12 13:08:07;;;;;;;22.10;13.75;;;0.70;99.90;;;;;;4877765;29;20032;-74
2020/12/12 13:10:32;;;;;;;23.00;13.27;;;0.80;99.90;;;;;;4877465;29;20120;-75
2020/12/12 13:12:58;;;;;;;24.48;13.00;;;0.70;99.90;;;;;;4877509;29;20056;-75
2020/12/12 13:15:24;;;;;;;21.45;12.13;;;0.70;99.90;;;;;;4877374;29;20065;-76
2020/12/12 13:17:50;;;;;;;21.00;12.32;;;0.70;99.90;;;;;;4877195;29;20029;-76
2020/12/12 13:23:17;;;;;;;24.88;16.10;;;0.70;99.90;;;;;;4838106;29;20041;-75
2020/12/12 13:25:44;;;;;;;22.33;14.02;;;0.60;99.90;;;;;;4868304;29;20474;-75
2020/12/12 13:28:46;;;;;;;24.85;15.63;;;0.70;99.90;;;;;;4874720;29;20040;-75
2020/12/12 13:31:06;;;;;;;21.80;13.35;;;0.70;99.90;;;;;;4877132;29;20655;-76
2020/12/12 13:33:33;;;;;;;25.17;12.73;;;0.70;99.90;;;;;;4877222;29;20112;-76
2020/12/12 13:36:03;;;;;;;22.60;14.18;;;0.70;99.90;;;;;;4877496;29;20029;-76
2020/12/12 13:38:29;;;;;;;24.60;16.13;;;0.70;99.90;;;;;;4877302;29;20021;-76
2020/12/12 13:40:55;;;;;;;25.33;15.73;;;0.70;99.90;;;;;;4881468;29;20037;-75
2020/12/12 13:43:20;;;;;;;18.48;12.50;;;0.70;99.90;;;;;;4881538;29;20535;-76
2020/12/12 13:45:47;;;;;;;21.50;12.25;;;0.70;99.90;;;;;;4881294;29;20029;-75
2020/12/12 13:48:13;;;;;;;19.92;11.63;;;0.70;99.90;;;;;;4881455;29;20640;-76
2020/12/12 13:50:40;;;;;;;19.95;11.90;;;0.70;99.90;;;;;;4879997;29;20045;-76
2020/12/12 13:53:06;;;;;;;23.08;11.50;;;0.70;99.90;;;;;;4881178;29;20029;-76
2020/12/12 13:55:31;;;;;;;22.08;13.27;;;0.80;99.90;;;;;;4878731;29;20030;-74
2020/12/12 13:57:57;;;;;;;22.52;13.27;;;0.80;99.90;;;;;;4875160;29;20120;-75
2020/12/12 14:00:23;;;;;;;19.60;12.50;;;0.80;99.90;;;;;;4880419;29;20116;-74
2020/12/12 14:02:48;;;;;;;20.23;12.65;;;0.80;99.90;;;;;;4877555;29;20462;-75
2020/12/12 14:05:14;;;;;;;18.48;12.20;;;0.80;99.90;;;;;;4880680;29;20088;-75
2020/12/12 14:07:42;;;;;;;18.00;11.70;;;0.80;99.90;;;;;;4880499;29;20032;-74
2020/12/12 14:10:22;;;;;;;19.10;11.98;;;0.80;99.90;;;;;;4879553;29;20039;-74
2020/12/12 14:23:26;;;;;;;23.63;14.52;;;0.80;99.90;;;;;;4877022;29;20038;-75
2020/12/12 14:28:38;;;;;;;12.85;8.40;;;1.10;99.90;;;;;;4875710;29;20028;-72
2020/12/12 14:31:04;;;;;;;24.02;14.57;;;1.70;99.90;;;;;;4873692;29;20516;-84
2020/12/12 14:33:30;;;;;;;21.08;12.43;;;2.80;99.90;;;;;;4868215;29;20021;-85
2020/12/12 14:35:55;;;;;;;18.83;12.00;;;2.60;99.90;;;;;;4879799;29;20025;-82
2020/12/12 14:38:25;;;;;;;19.55;11.85;;;2.30;99.90;;;;;;4878229;29;20739;-80
2020/12/12 14:40:51;;;;;;;18.73;11.57;;;2.00;99.90;;;;;;4861846;29;20029;-80
2020/12/12 14:43:17;;;;;;;21.08;13.02;;;1.70;99.90;;;;;;4862910;29;20049;-80
2020/12/12 14:45:42;;;;;;;21.63;12.77;;;1.60;99.90;;;;;;4880799;29;20072;-80
2020/12/12 14:48:08;;;;;;;23.15;12.95;;;1.50;99.90;;;;;;4868402;29;20383;-80
2020/12/12 14:50:34;;;;;;;24.13;14.20;;;1.40;99.90;;;;;;4860843;29;20037;-80
2020/12/12 14:53:01;;;;;;;23.10;13.52;;;1.30;99.90;;;;;;4861756;29;20018;-80
2020/12/12 14:55:26;;;;;;;23.13;13.70;;;1.20;99.90;;;;;;4878824;29;20052;-79
2020/12/12 14:57:54;;;;;;;22.13;13.23;;;1.20;99.90;;;;;;4877078;29;20083;-79
2020/12/12 15:00:21;;;;;;;19.98;12.35;;;1.10;99.90;;;;;;4868127;29;20033;-80
2020/12/12 15:02:48;;;;;;;20.38;12.38;;;1.10;99.90;;;;;;4880123;29;20037;-81
2020/12/12 15:05:15;;;;;;;20.20;12.00;;;1.40;99.90;;;;;;4880594;29;20033;-85
2020/12/12 15:07:42;;;;;;;22.15;11.98;;;1.40;99.90;;;;;;4875039;29;20029;-77
2020/12/12 15:10:09;;;;;;;18.65;11.75;;;1.30;99.90;;;;;;4872433;29;20587;-85
2020/12/12 15:12:39;;;;;;;18.90;11.75;;;1.30;99.90;;;;;;4874722;29;20025;-85
2020/12/12 15:15:08;;;;;;;20.60;11.80;;;1.20;99.90;;;;;;4872560;29;20057;-85
2020/12/12 15:17:35;;;;;;;19.98;12.25;;;1.20;99.90;;;;;;4878049;29;20509;-82
2020/12/12 15:20:02;;;;;;;20.45;12.43;;;1.20;99.90;;;;;;4880198;29;20432;-85
2020/12/12 15:22:28;;;;;;;20.27;12.55;;;1.20;99.90;;;;;;4879217;29;20036;-84
2020/12/12 15:24:53;;;;;;;25.00;15.05;;;1.20;99.90;;;;;;4870020;29;20390;-82
2020/12/12 15:27:19;;;;;;;25.38;14.73;;;1.20;99.90;;;;;;4878822;29;20168;-83
2020/12/12 15:29:45;;;;;;;22.17;12.98;;;1.20;99.90;;;;;;4878788;29;20497;-83
2020/12/12 15:32:15;;;;;;;20.50;11.40;;;1.20;99.90;;;;;;4879683;29;20055;-81
2020/12/12 15:34:41;;;;;;;18.77;11.77;;;1.10;99.90;;;;;;4879625;29;20390;-80
2020/12/12 15:37:07;;;;;;;21.55;11.88;;;1.00;99.90;;;;;;4879631;29;20057;-81
2020/12/12 15:39:33;;;;;;;21.02;12.77;;;1.00;99.90;;;;;;4879616;29;20088;-81
2020/12/12 15:41:58;;;;;;;22.00;12.98;;;0.90;99.90;;;;;;4879635;29;20473;-80
2020/12/12 15:44:25;;;;;;;21.20;13.27;;;0.90;99.90;;;;;;4879518;29;20438;-80
2020/12/12 15:46:52;;;;;;;21.40;12.35;;;0.90;99.90;;;;;;4879314;29;20159;-78
2020/12/12 15:49:17;;;;;;;22.45;13.30;;;0.90;99.90;;;;;;4878003;29;20037;-77
2020/12/12 15:51:45;;;;;;;21.85;13.35;;;0.80;99.90;;;;;;4879480;29;20044;-79
2020/12/12 15:54:12;;;;;;;20.13;12.60;;;0.80;99.90;;;;;;4879324;29;20029;-73
2020/12/12 15:56:41;;;;;;;22.08;12.52;;;0.70;99.90;;;;;;4875974;29;20025;-73
2020/12/12 15:59:11;;;;;;;20.13;12.25;;;0.50;99.90;;;;;;4876331;29;20029;-73
2020/12/12 16:01:37;;;;;;;21.35;12.48;;;0.30;99.80;;;;;;4871688;29;20025;-73
2020/12/12 16:04:04;;;;;;;24.10;13.57;;;0.10;99.90;;;;;;4878838;29;20108;-74
2020/12/12 16:06:30;;;;;;;21.55;13.13;;;-0.20;99.90;;;;;;4879373;29;20029;-72
2020/12/12 16:08:56;;;;;;;21.30;13.05;;;-0.20;99.90;;;;;;4878868;29;20055;-72
2020/12/12 16:11:22;;;;;;;27.05;15.77;;;-0.20;99.90;;;;;;4879332;29;20033;-72
2020/12/12 16:13:49;;;;;;;23.15;14.18;;;0.20;99.90;;;;;;4878837;29;20366;-72
2020/12/12 16:16:14;;;;;;;21.35;12.82;;;0.40;99.90;;;;;;4878688;29;20037;-73
2020/12/12 16:18:40;;;;;;;21.45;12.50;;;0.40;99.90;;;;;;4878503;29;20041;-76
2020/12/12 16:21:06;;;;;;;21.90;12.75;;;0.30;99.90;;;;;;4878452;29;20135;-75
2020/12/12 16:23:32;;;;;;;22.20;13.20;;;0.30;99.90;;;;;;4878764;29;20153;-75
2020/12/12 16:25:58;;;;;;;20.65;12.70;;;0.20;99.90;;;;;;4878801;29;20101;-76
2020/12/12 16:28:23;;;;;;;22.02;12.93;;;0.20;99.90;;;;;;4878570;29;20104;-75
2020/12/12 16:30:49;;;;;;;26.55;14.18;;;0.20;99.90;;;;;;4876951;29;20037;-75
2020/12/12 16:33:15;;;;;;;23.90;13.40;;;0.10;99.90;;;;;;4866951;29;20029;-76
2020/12/12 16:35:41;;;;;;;26.08;14.35;;;0.10;99.90;;;;;;4878458;29;20029;-76
2020/12/12 16:38:07;;;;;;;30.98;16.35;;;0.00;99.90;;;;;;4878445;29;20116;-76
2020/12/12 16:40:33;;;;;;;23.30;14.23;;;-0.10;99.90;;;;;;4878649;29;20021;-74
2020/12/12 16:43:00;;;;;;;21.15;13.38;;;0.00;99.90;;;;;;4878309;29;20026;-74
2020/12/12 16:45:27;;;;;;;22.30;12.80;;;0.10;99.90;;;;;;4877066;29;20107;-75
2020/12/12 16:47:53;;;;;;;31.15;17.77;;;0.10;99.90;;;;;;4878638;29;20033;-75
2020/12/12 16:50:19;;;;;;;28.67;15.23;;;0.00;99.90;;;;;;4878092;29;20075;-76
2020/12/12 16:52:46;;;;;;;24.88;13.95;;;0.00;99.90;;;;;;4878492;29;20053;-75
2020/12/12 16:55:20;;;;;;;18.48;11.57;;;-0.10;99.90;;;;;;4864888;29;20025;-77
2020/12/12 16:57:47;;;;;;;25.42;11.93;;;-0.10;99.90;;;;;;4865090;29;20063;-76
2020/12/12 17:00:19;;;;;;;19.67;12.05;;;-0.20;99.90;;;;;;4878378;29;20490;-76
2020/12/12 17:02:46;;;;;;;21.52;12.63;;;-0.30;99.90;;;;;;4865419;29;20497;-76
2020/12/12 17:05:12;;;;;;;19.83;11.80;;;-0.40;99.90;;;;;;4878288;29;20051;-75
2020/12/12 17:07:50;;;;;;;22.25;11.43;;;-0.50;99.90;;;;;;4877709;29;20029;-75
2020/12/12 17:10:19;;;;;;;21.55;12.15;;;-0.50;99.90;;;;;;4878338;29;20056;-75
2020/12/12 17:12:50;;;;;;;21.83;12.88;;;-0.50;99.90;;;;;;4877857;29;20018;-74
2020/12/12 17:15:16;;;;;;;22.17;12.55;;;-0.50;99.90;;;;;;4878058;29;20024;-75
2020/12/12 17:17:46;;;;;;;20.60;12.02;;;-0.50;99.90;;;;;;4877771;29;20040;-77
2020/12/12 17:20:12;;;;;;;18.38;12.20;;;-0.50;99.90;;;;;;4877651;29;20509;-75
2020/12/12 17:22:46;;;;;;;20.42;12.30;;;-0.50;99.90;;;;;;4877951;29;20033;-74
2020/12/12 17:25:13;;;;;;;22.50;13.70;;;-0.60;99.90;;;;;;4877809;29;20743;-74
2020/12/12 17:27:41;;;;;;;22.85;13.10;;;-0.60;99.90;;;;;;4877754;29;20029;-75
2020/12/12 17:30:09;;;;;;;23.45;12.77;;;-0.70;99.90;;;;;;4873443;29;20519;-74
2020/12/12 17:32:36;;;;;;;23.38;12.95;;;-0.70;99.90;;;;;;4868539;29;20021;-75
2020/12/12 17:35:06;;;;;;;23.00;13.48;;;-0.70;99.90;;;;;;4861864;29;20478;-75
2020/12/12 17:37:33;;;;;;;;;;;-0.70;99.90;;;;;;4859696;29;20470;-74
2020/12/12 17:39:58;;;;;;;27.10;13.98;;;-0.70;99.90;;;;;;4873728;29;19919;-76
2020/12/12 17:42:24;;;;;;;19.02;11.25;;;-0.70;99.90;;;;;;4877699;29;20032;-76
2020/12/12 17:44:50;;;;;;;27.08;14.77;;;-0.70;99.90;;;;;;4877936;29;20040;-76
2020/12/12 17:47:15;;;;;;;27.70;14.90;;;-0.70;99.90;;;;;;4871990;29;20162;-76
2020/12/12 17:49:41;;;;;;;40.10;19.98;;;-0.60;99.90;;;;;;4859168;29;20034;-76
2020/12/12 17:52:10;;;;;;;32.83;16.48;;;-0.60;99.90;;;;;;4874191;29;20048;-74
2020/12/12 17:54:37;;;;;;;32.38;16.85;;;-0.70;99.90;;;;;;4877632;29;20074;-74
2020/12/12 17:57:03;;;;;;;30.42;15.00;;;-0.60;99.90;;;;;;4877321;29;20529;-79
2020/12/12 17:59:29;;;;;;;27.80;15.57;;;-0.60;99.90;;;;;;4876550;29;20121;-76
2020/12/12 18:01:55;;;;;;;23.48;14.95;;;-0.50;99.90;;;;;;4877546;29;20034;-75
2020/12/12 18:04:22;;;;;;;26.58;13.75;;;-0.50;99.90;;;;;;4877453;29;20439;-74
2020/12/12 18:06:48;;;;;;;25.88;13.70;;;-0.40;99.90;;;;;;4877542;29;20033;-74
2020/12/12 18:09:14;;;;;;;24.05;13.05;;;-0.50;99.90;;;;;;4877484;29;20025;-75
2020/12/12 18:11:40;;;;;;;24.17;13.73;;;-0.50;99.90;;;;;;4877683;29;20081;-74
2020/12/12 18:14:06;;;;;;;33.35;18.10;;;-0.50;99.90;;;;;;4877590;29;20785;-77
2020/12/12 18:16:35;;;;;;;33.85;18.10;;;-0.50;99.90;;;;;;4876989;29;20477;-74
2020/12/12 18:19:01;;;;;;;33.30;18.10;;;-0.50;99.90;;;;;;4877130;29;20049;-74
2020/12/12 18:21:27;;;;;;;26.17;16.10;;;-0.50;99.90;;;;;;4877607;29;20509;-75
2020/12/12 18:23:53;;;;;;;26.00;15.02;;;-0.50;99.90;;;;;;4877395;29;20036;-74
2020/12/12 18:26:21;;;;;;;24.15;13.70;;;-0.50;99.90;;;;;;4878062;29;20085;-74
2020/12/12 18:28:52;;;;;;;26.52;16.50;;;-0.50;99.90;;;;;;4869410;29;20041;-80
2020/12/12 18:31:20;;;;;;;27.45;16.75;;;-0.50;99.90;;;;;;4867228;29;20045;-84